sensor_id;sensor_type;location;lat;lon;timestamp;P1;durP1;ratioP1;P2;durP2;ratioP2
51943;SDS011;37969;53.132;6.370;2022-08-01T00:02:16;23.38;;;13.50;;
51943;SDS011;37969;53.132;6.370;2022-08-01T00:04:44;19.20;;;13.15;;
51943;SDS011;37969;53.132;6.370;2022-08-01T00:07:12;20.58;;;12.85;;
51943;SDS011;37969;53.132;6.370;2022-08-01T00:09:40;17.08;;;11.77;;
51943;SDS011;37969;53.132;6.370;2022-08-01T00:12:09;16.08;;;11.73;;
51943;SDS011;37969;53.132;6.370;2022-08-01T00:14:35;18.38;;;11.50;;
51943;SDS011;37969;53.132;6.370;2022-08-01T00:17:02;16.55;;;11.05;;
51943;SDS011;37969;53.132;6.370;2022-08-01T00:19:29;17.02;;;11.32;;
51943;SDS011;37969;53.132;6.370;2022-08-01T00:22:01;14.55;;;10.05;;
51943;SDS011;37969;53.132;6.370;2022-08-01T00:24:29;14.95;;;9.77;;
51943;SDS011;37969;53.132;6.370;2022-08-01T00:26:56;16.55;;;10.05;;
51943;SDS011;37969;53.132;6.370;2022-08-01T00:29:25;12.85;;;8.25;;
51943;SDS011;37969;53.132;6.370;2022-08-01T00:31:58;14.00;;;9.77;;
51943;SDS011;37969;53.132;6.370;2022-08-01T00:34:25;14.63;;;9.90;;
51943;SDS011;37969;53.132;6.370;2022-08-01T00:36:52;17.00;;;9.82;;
51943;SDS011;37969;53.132;6.370;2022-08-01T00:39:20;10.57;;;7.60;;
51943;SDS011;37969;53.132;6.370;2022-08-01T00:41:49;6.05;;;5.47;;
51943;SDS011;37969;53.132;6.370;2022-08-01T00:44:15;5.32;;;4.80;;
51943;SDS011;37969;53.132;6.370;2022-08-01T00:46:41;6.93;;;5.20;;
51943;SDS011;37969;53.132;6.370;2022-08-01T00:49:10;8.25;;;5.82;;
51943;SDS011;37969;53.132;6.370;2022-08-01T00:51:38;7.95;;;6.32;;
51943;SDS011;37969;53.132;6.370;2022-08-01T00:54:05;5.75;;;5.18;;
51943;SDS011;37969;53.132;6.370;2022-08-01T00:56:34;7.90;;;5.63;;
51943;SDS011;37969;53.132;6.370;2022-08-01T00:59:00;10.90;;;6.43;;
51943;SDS011;37969;53.132;6.370;2022-08-01T01:01:30;8.32;;;6.15;;
51943;SDS011;37969;53.132;6.370;2022-08-01T01:03:57;8.07;;;5.82;;
51943;SDS011;37969;53.132;6.370;2022-08-01T01:09:33;9.63;;;6.72;;
51943;SDS011;37969;53.132;6.370;2022-08-01T01:12:04;10.45;;;5.28;;
51943;SDS011;37969;53.132;6.370;2022-08-01T01:14:54;10.60;;;6.63;;
51943;SDS011;37969;53.132;6.370;2022-08-01T01:17:24;8.77;;;6.57;;
51943;SDS011;37969;53.132;6.370;2022-08-01T01:19:54;7.32;;;6.15;;
51943;SDS011;37969;53.132;6.370;2022-08-01T01:22:22;8.00;;;5.90;;
51943;SDS011;37969;53.132;6.370;2022-08-01T01:24:56;7.10;;;5.55;;
51943;SDS011;37969;53.132;6.370;2022-08-01T01:27:25;7.00;;;5.97;;
51943;SDS011;37969;53.132;6.370;2022-08-01T01:29:56;8.77;;;5.15;;
51943;SDS011;37969;53.132;6.370;2022-08-01T01:32:31;7.03;;;5.75;;
51943;SDS011;37969;53.132;6.370;2022-08-01T01:35:00;9.15;;;4.25;;
51943;SDS011;37969;53.132;6.370;2022-08-01T01:37:29;9.27;;;4.55;;
51943;SDS011;37969;53.132;6.370;2022-08-01T01:39:58;7.10;;;3.40;;
51943;SDS011;37969;53.132;6.370;2022-08-01T01:42:25;6.63;;;3.63;;
51943;SDS011;37969;53.132;6.370;2022-08-01T01:44:58;10.35;;;3.70;;
51943;SDS011;37969;53.132;6.370;2022-08-01T01:47:27;9.00;;;3.95;;
51943;SDS011;37969;53.132;6.370;2022-08-01T01:49:56;7.85;;;3.10;;
51943;SDS011;37969;53.132;6.370;2022-08-01T01:52:27;7.85;;;3.03;;
51943;SDS011;37969;53.132;6.370;2022-08-01T01:54:56;5.32;;;2.88;;
51943;SDS011;37969;53.132;6.370;2022-08-01T01:57:22;7.75;;;2.80;;
51943;SDS011;37969;53.132;6.370;2022-08-01T01:59:54;10.95;;;3.08;;
51943;SDS011;37969;53.132;6.370;2022-08-01T02:02:23;10.00;;;2.90;;
51943;SDS011;37969;53.132;6.370;2022-08-01T02:04:50;10.45;;;3.13;;
51943;SDS011;37969;53.132;6.370;2022-08-01T02:07:19;8.50;;;3.20;;
51943;SDS011;37969;53.132;6.370;2022-08-01T02:09:45;8.48;;;2.92;;
51943;SDS011;37969;53.132;6.370;2022-08-01T02:12:12;10.40;;;3.10;;
51943;SDS011;37969;53.132;6.370;2022-08-01T02:14:40;9.15;;;3.22;;
51943;SDS011;37969;53.132;6.370;2022-08-01T02:17:07;10.88;;;3.47;;
51943;SDS011;37969;53.132;6.370;2022-08-01T02:19:36;11.98;;;3.08;;
51943;SDS011;37969;53.132;6.370;2022-08-01T02:24:42;9.77;;;3.15;;
51943;SDS011;37969;53.132;6.370;2022-08-01T02:27:12;8.68;;;3.35;;
51943;SDS011;37969;53.132;6.370;2022-08-01T02:29:43;17.92;;;3.58;;
51943;SDS011;37969;53.132;6.370;2022-08-01T02:32:12;11.15;;;3.45;;
51943;SDS011;37969;53.132;6.370;2022-08-01T02:34:45;10.18;;;3.45;;
51943;SDS011;37969;53.132;6.370;2022-08-01T02:37:15;16.77;;;4.28;;
51943;SDS011;37969;53.132;6.370;2022-08-01T02:39:42;15.23;;;4.10;;
51943;SDS011;37969;53.132;6.370;2022-08-01T02:42:10;15.63;;;4.30;;
51943;SDS011;37969;53.132;6.370;2022-08-01T02:44:37;17.27;;;4.45;;
51943;SDS011;37969;53.132;6.370;2022-08-01T02:47:07;17.52;;;4.63;;
51943;SDS011;37969;53.132;6.370;2022-08-01T02:49:37;17.73;;;4.30;;
51943;SDS011;37969;53.132;6.370;2022-08-01T02:52:06;17.95;;;4.70;;
51943;SDS011;37969;53.132;6.370;2022-08-01T02:54:36;20.75;;;5.20;;
51943;SDS011;37969;53.132;6.370;2022-08-01T02:57:07;12.68;;;4.20;;
51943;SDS011;37969;53.132;6.370;2022-08-01T02:59:34;17.77;;;4.97;;
51943;SDS011;37969;53.132;6.370;2022-08-01T03:02:03;17.33;;;4.87;;
51943;SDS011;37969;53.132;6.370;2022-08-01T03:04:30;16.13;;;4.88;;
51943;SDS011;37969;53.132;6.370;2022-08-01T03:06:58;14.30;;;5.30;;
51943;SDS011;37969;53.132;6.370;2022-08-01T03:09:28;15.57;;;5.05;;
51943;SDS011;37969;53.132;6.370;2022-08-01T03:11:57;18.95;;;5.25;;
51943;SDS011;37969;53.132;6.370;2022-08-01T03:16:51;11.98;;;4.70;;
51943;SDS011;37969;53.132;6.370;2022-08-01T03:19:22;24.00;;;5.32;;
51943;SDS011;37969;53.132;6.370;2022-08-01T03:21:48;15.43;;;5.07;;
51943;SDS011;37969;53.132;6.370;2022-08-01T03:24:20;16.63;;;5.38;;
51943;SDS011;37969;53.132;6.370;2022-08-01T03:26:48;13.75;;;5.07;;
51943;SDS011;37969;53.132;6.370;2022-08-01T03:29:21;18.35;;;5.13;;
51943;SDS011;37969;53.132;6.370;2022-08-01T03:31:49;21.48;;;5.15;;
51943;SDS011;37969;53.132;6.370;2022-08-01T03:34:25;20.98;;;4.78;;
51943;SDS011;37969;53.132;6.370;2022-08-01T03:36:58;19.30;;;4.82;;
51943;SDS011;37969;53.132;6.370;2022-08-01T03:39:26;19.45;;;5.28;;
51943;SDS011;37969;53.132;6.370;2022-08-01T03:41:55;17.73;;;5.28;;
51943;SDS011;37969;53.132;6.370;2022-08-01T03:44:23;21.90;;;5.20;;
51943;SDS011;37969;53.132;6.370;2022-08-01T03:46:56;25.33;;;5.07;;
51943;SDS011;37969;53.132;6.370;2022-08-01T03:49:30;20.20;;;4.82;;
51943;SDS011;37969;53.132;6.370;2022-08-01T03:51:58;22.20;;;5.32;;
51943;SDS011;37969;53.132;6.370;2022-08-01T03:54:33;17.75;;;4.55;;
51943;SDS011;37969;53.132;6.370;2022-08-01T03:57:03;20.08;;;4.90;;
51943;SDS011;37969;53.132;6.370;2022-08-01T03:59:29;14.32;;;4.30;;
51943;SDS011;37969;53.132;6.370;2022-08-01T04:01:58;19.52;;;5.00;;
51943;SDS011;37969;53.132;6.370;2022-08-01T04:04:24;13.93;;;4.60;;
51943;SDS011;37969;53.132;6.370;2022-08-01T04:06:50;17.95;;;4.93;;
51943;SDS011;37969;53.132;6.370;2022-08-01T04:09:19;23.40;;;4.75;;
51943;SDS011;37969;53.132;6.370;2022-08-01T04:11:46;23.80;;;5.32;;
51943;SDS011;37969;53.132;6.370;2022-08-01T04:14:15;20.13;;;4.95;;
51943;SDS011;37969;53.132;6.370;2022-08-01T04:16:41;20.42;;;4.50;;
51943;SDS011;37969;53.132;6.370;2022-08-01T04:19:11;26.50;;;4.80;;
51943;SDS011;37969;53.132;6.370;2022-08-01T04:21:37;26.77;;;4.95;;
51943;SDS011;37969;53.132;6.370;2022-08-01T04:24:10;24.48;;;4.93;;
51943;SDS011;37969;53.132;6.370;2022-08-01T04:26:38;22.33;;;4.70;;
51943;SDS011;37969;53.132;6.370;2022-08-01T04:29:08;18.05;;;4.00;;
51943;SDS011;37969;53.132;6.370;2022-08-01T04:31:35;17.58;;;4.55;;
51943;SDS011;37969;53.132;6.370;2022-08-01T04:34:02;20.65;;;4.05;;
51943;SDS011;37969;53.132;6.370;2022-08-01T04:36:33;19.55;;;3.85;;
51943;SDS011;37969;53.132;6.370;2022-08-01T04:39:02;24.98;;;4.95;;
51943;SDS011;37969;53.132;6.370;2022-08-01T04:41:30;20.33;;;4.20;;
51943;SDS011;37969;53.132;6.370;2022-08-01T04:43:58;22.00;;;4.38;;
51943;SDS011;37969;53.132;6.370;2022-08-01T04:46:25;26.88;;;4.78;;
51943;SDS011;37969;53.132;6.370;2022-08-01T04:48:52;18.85;;;4.00;;
51943;SDS011;37969;53.132;6.370;2022-08-01T04:51:21;23.42;;;4.28;;
51943;SDS011;37969;53.132;6.370;2022-08-01T04:53:49;22.77;;;4.93;;
51943;SDS011;37969;53.132;6.370;2022-08-01T04:56:16;21.92;;;4.68;;
51943;SDS011;37969;53.132;6.370;2022-08-01T04:58:42;28.33;;;4.30;;
51943;SDS011;37969;53.132;6.370;2022-08-01T05:01:09;21.05;;;3.85;;
51943;SDS011;37969;53.132;6.370;2022-08-01T05:03:35;19.90;;;3.92;;
51943;SDS011;37969;53.132;6.370;2022-08-01T05:06:03;23.42;;;4.13;;
51943;SDS011;37969;53.132;6.370;2022-08-01T05:08:30;23.42;;;4.20;;
51943;SDS011;37969;53.132;6.370;2022-08-01T05:10:58;23.35;;;4.25;;
51943;SDS011;37969;53.132;6.370;2022-08-01T05:13:29;22.80;;;4.18;;
51943;SDS011;37969;53.132;6.370;2022-08-01T05:16:00;27.60;;;4.38;;
51943;SDS011;37969;53.132;6.370;2022-08-01T05:18:28;21.48;;;4.53;;
51943;SDS011;37969;53.132;6.370;2022-08-01T05:20:54;26.58;;;4.88;;
51943;SDS011;37969;53.132;6.370;2022-08-01T05:23:22;23.90;;;4.50;;
51943;SDS011;37969;53.132;6.370;2022-08-01T05:25:50;22.55;;;3.83;;
51943;SDS011;37969;53.132;6.370;2022-08-01T05:28:19;30.63;;;4.45;;
51943;SDS011;37969;53.132;6.370;2022-08-01T05:30:51;19.42;;;3.50;;
51943;SDS011;37969;53.132;6.370;2022-08-01T05:33:20;25.05;;;4.38;;
51943;SDS011;37969;53.132;6.370;2022-08-01T05:35:46;21.48;;;4.22;;
51943;SDS011;37969;53.132;6.370;2022-08-01T05:38:19;16.15;;;3.80;;
51943;SDS011;37969;53.132;6.370;2022-08-01T05:40:47;27.85;;;4.60;;
51943;SDS011;37969;53.132;6.370;2022-08-01T05:43:19;21.95;;;3.80;;
51943;SDS011;37969;53.132;6.370;2022-08-01T05:45:45;30.10;;;4.60;;
51943;SDS011;37969;53.132;6.370;2022-08-01T05:48:17;22.58;;;4.22;;
51943;SDS011;37969;53.132;6.370;2022-08-01T05:50:49;25.73;;;4.63;;
51943;SDS011;37969;53.132;6.370;2022-08-01T05:53:16;20.45;;;4.60;;
51943;SDS011;37969;53.132;6.370;2022-08-01T05:55:45;24.15;;;3.95;;
51943;SDS011;37969;53.132;6.370;2022-08-01T05:58:12;23.80;;;4.18;;
51943;SDS011;37969;53.132;6.370;2022-08-01T06:00:40;21.67;;;4.05;;
51943;SDS011;37969;53.132;6.370;2022-08-01T06:03:07;29.80;;;4.78;;
51943;SDS011;37969;53.132;6.370;2022-08-01T06:05:33;22.17;;;4.40;;
51943;SDS011;37969;53.132;6.370;2022-08-01T06:08:00;23.67;;;4.30;;
51943;SDS011;37969;53.132;6.370;2022-08-01T06:10:27;20.67;;;4.18;;
51943;SDS011;37969;53.132;6.370;2022-08-01T06:12:53;23.83;;;4.05;;
51943;SDS011;37969;53.132;6.370;2022-08-01T06:15:20;21.10;;;4.40;;
51943;SDS011;37969;53.132;6.370;2022-08-01T06:17:46;27.83;;;4.60;;
51943;SDS011;37969;53.132;6.370;2022-08-01T06:20:15;28.00;;;5.10;;
51943;SDS011;37969;53.132;6.370;2022-08-01T06:22:41;23.10;;;4.07;;
51943;SDS011;37969;53.132;6.370;2022-08-01T06:25:08;21.02;;;4.88;;
51943;SDS011;37969;53.132;6.370;2022-08-01T06:27:34;23.52;;;4.13;;
51943;SDS011;37969;53.132;6.370;2022-08-01T06:30:03;21.83;;;4.10;;
51943;SDS011;37969;53.132;6.370;2022-08-01T06:32:30;25.40;;;4.10;;
51943;SDS011;37969;53.132;6.370;2022-08-01T06:35:00;23.08;;;4.30;;
51943;SDS011;37969;53.132;6.370;2022-08-01T06:37:29;26.90;;;4.18;;
51943;SDS011;37969;53.132;6.370;2022-08-01T06:40:01;24.08;;;4.55;;
51943;SDS011;37969;53.132;6.370;2022-08-01T06:42:28;21.42;;;4.43;;
51943;SDS011;37969;53.132;6.370;2022-08-01T06:44:57;22.17;;;4.45;;
51943;SDS011;37969;53.132;6.370;2022-08-01T06:47:23;23.88;;;4.53;;
51943;SDS011;37969;53.132;6.370;2022-08-01T06:49:52;17.98;;;3.85;;
51943;SDS011;37969;53.132;6.370;2022-08-01T06:52:21;19.30;;;3.50;;
51943;SDS011;37969;53.132;6.370;2022-08-01T06:54:50;18.60;;;3.53;;
51943;SDS011;37969;53.132;6.370;2022-08-01T06:57:17;16.65;;;3.35;;
51943;SDS011;37969;53.132;6.370;2022-08-01T06:59:44;22.08;;;3.80;;
51943;SDS011;37969;53.132;6.370;2022-08-01T07:02:13;20.77;;;3.83;;
51943;SDS011;37969;53.132;6.370;2022-08-01T07:04:41;20.67;;;3.63;;
51943;SDS011;37969;53.132;6.370;2022-08-01T07:07:07;18.35;;;3.47;;
51943;SDS011;37969;53.132;6.370;2022-08-01T07:09:34;16.35;;;3.10;;
51943;SDS011;37969;53.132;6.370;2022-08-01T07:12:01;23.60;;;3.05;;
51943;SDS011;37969;53.132;6.370;2022-08-01T07:14:31;17.75;;;3.72;;
51943;SDS011;37969;53.132;6.370;2022-08-01T07:17:00;25.08;;;3.92;;
51943;SDS011;37969;53.132;6.370;2022-08-01T07:19:29;19.20;;;3.17;;
51943;SDS011;37969;53.132;6.370;2022-08-01T07:21:55;19.40;;;3.90;;
51943;SDS011;37969;53.132;6.370;2022-08-01T07:24:21;18.08;;;3.05;;
51943;SDS011;37969;53.132;6.370;2022-08-01T07:26:48;14.75;;;3.03;;
51943;SDS011;37969;53.132;6.370;2022-08-01T07:29:16;15.73;;;3.38;;
51943;SDS011;37969;53.132;6.370;2022-08-01T07:31:42;14.85;;;2.70;;
51943;SDS011;37969;53.132;6.370;2022-08-01T07:34:09;18.95;;;3.38;;
51943;SDS011;37969;53.132;6.370;2022-08-01T07:36:36;16.58;;;3.08;;
51943;SDS011;37969;53.132;6.370;2022-08-01T07:39:08;19.60;;;3.25;;
51943;SDS011;37969;53.132;6.370;2022-08-01T07:41:34;8.82;;;2.28;;
51943;SDS011;37969;53.132;6.370;2022-08-01T07:44:00;19.63;;;2.85;;
51943;SDS011;37969;53.132;6.370;2022-08-01T07:46:27;16.85;;;3.60;;
51943;SDS011;37969;53.132;6.370;2022-08-01T07:48:55;13.52;;;2.72;;
51943;SDS011;37969;53.132;6.370;2022-08-01T07:51:21;12.13;;;2.50;;
51943;SDS011;37969;53.132;6.370;2022-08-01T07:53:48;17.35;;;2.80;;
51943;SDS011;37969;53.132;6.370;2022-08-01T07:56:14;14.48;;;2.58;;
51943;SDS011;37969;53.132;6.370;2022-08-01T07:58:40;17.35;;;2.78;;
51943;SDS011;37969;53.132;6.370;2022-08-01T08:01:13;17.90;;;2.78;;
51943;SDS011;37969;53.132;6.370;2022-08-01T08:03:40;15.20;;;2.75;;
51943;SDS011;37969;53.132;6.370;2022-08-01T08:06:06;13.82;;;2.60;;
51943;SDS011;37969;53.132;6.370;2022-08-01T08:08:32;15.88;;;3.03;;
51943;SDS011;37969;53.132;6.370;2022-08-01T08:10:59;17.80;;;2.60;;
51943;SDS011;37969;53.132;6.370;2022-08-01T08:13:26;15.82;;;2.90;;
51943;SDS011;37969;53.132;6.370;2022-08-01T08:15:53;15.23;;;2.40;;
51943;SDS011;37969;53.132;6.370;2022-08-01T08:18:20;14.90;;;2.95;;
51943;SDS011;37969;53.132;6.370;2022-08-01T08:20:48;17.98;;;3.03;;
51943;SDS011;37969;53.132;6.370;2022-08-01T08:23:15;12.90;;;2.78;;
51943;SDS011;37969;53.132;6.370;2022-08-01T08:26:06;19.55;;;2.70;;
51943;SDS011;37969;53.132;6.370;2022-08-01T08:28:32;17.20;;;2.47;;
51943;SDS011;37969;53.132;6.370;2022-08-01T08:31:02;10.88;;;2.40;;
51943;SDS011;37969;53.132;6.370;2022-08-01T08:33:30;16.70;;;2.72;;
51943;SDS011;37969;53.132;6.370;2022-08-01T08:35:58;10.55;;;2.42;;
51943;SDS011;37969;53.132;6.370;2022-08-01T08:38:26;16.73;;;2.83;;
51943;SDS011;37969;53.132;6.370;2022-08-01T08:40:53;8.40;;;1.77;;
51943;SDS011;37969;53.132;6.370;2022-08-01T08:43:22;11.68;;;2.13;;
51943;SDS011;37969;53.132;6.370;2022-08-01T08:45:51;16.27;;;2.30;;
51943;SDS011;37969;53.132;6.370;2022-08-01T08:48:18;11.55;;;2.65;;
51943;SDS011;37969;53.132;6.370;2022-08-01T08:50:52;11.40;;;2.63;;
51943;SDS011;37969;53.132;6.370;2022-08-01T08:53:18;12.80;;;2.33;;
51943;SDS011;37969;53.132;6.370;2022-08-01T08:55:46;12.90;;;2.78;;
51943;SDS011;37969;53.132;6.370;2022-08-01T08:58:19;8.48;;;1.90;;
51943;SDS011;37969;53.132;6.370;2022-08-01T09:00:48;9.75;;;1.92;;
51943;SDS011;37969;53.132;6.370;2022-08-01T09:03:14;13.13;;;2.50;;
51943;SDS011;37969;53.132;6.370;2022-08-01T09:05:41;13.65;;;2.38;;
51943;SDS011;37969;53.132;6.370;2022-08-01T09:08:09;9.75;;;2.20;;
51943;SDS011;37969;53.132;6.370;2022-08-01T09:10:37;10.73;;;2.15;;
51943;SDS011;37969;53.132;6.370;2022-08-01T09:13:04;13.75;;;2.38;;
51943;SDS011;37969;53.132;6.370;2022-08-01T09:15:39;11.05;;;2.22;;
51943;SDS011;37969;53.132;6.370;2022-08-01T09:18:07;15.23;;;2.63;;
51943;SDS011;37969;53.132;6.370;2022-08-01T09:20:38;14.15;;;2.15;;
51943;SDS011;37969;53.132;6.370;2022-08-01T09:25:50;13.15;;;2.67;;
51943;SDS011;37969;53.132;6.370;2022-08-01T09:28:18;9.95;;;2.28;;
51943;SDS011;37969;53.132;6.370;2022-08-01T09:30:52;6.55;;;1.65;;
51943;SDS011;37969;53.132;6.370;2022-08-01T09:33:18;9.30;;;2.08;;
51943;SDS011;37969;53.132;6.370;2022-08-01T09:35:53;12.13;;;2.03;;
51943;SDS011;37969;53.132;6.370;2022-08-01T09:38:21;9.15;;;2.08;;
51943;SDS011;37969;53.132;6.370;2022-08-01T09:40:53;12.32;;;2.08;;
51943;SDS011;37969;53.132;6.370;2022-08-01T09:43:22;13.37;;;1.97;;
51943;SDS011;37969;53.132;6.370;2022-08-01T09:45:48;10.80;;;2.45;;
51943;SDS011;37969;53.132;6.370;2022-08-01T09:48:15;10.35;;;1.85;;
51943;SDS011;37969;53.132;6.370;2022-08-01T09:50:43;14.43;;;2.78;;
51943;SDS011;37969;53.132;6.370;2022-08-01T09:53:10;13.25;;;2.30;;
51943;SDS011;37969;53.132;6.370;2022-08-01T09:55:37;10.80;;;2.35;;
51943;SDS011;37969;53.132;6.370;2022-08-01T09:58:04;11.02;;;2.33;;
51943;SDS011;37969;53.132;6.370;2022-08-01T10:00:31;10.73;;;2.30;;
51943;SDS011;37969;53.132;6.370;2022-08-01T10:02:57;8.63;;;1.95;;
51943;SDS011;37969;53.132;6.370;2022-08-01T10:05:30;12.48;;;1.80;;
51943;SDS011;37969;53.132;6.370;2022-08-01T10:07:58;10.90;;;2.28;;
51943;SDS011;37969;53.132;6.370;2022-08-01T10:10:25;11.93;;;1.83;;
51943;SDS011;37969;53.132;6.370;2022-08-01T10:12:53;6.45;;;1.92;;
51943;SDS011;37969;53.132;6.370;2022-08-01T10:15:22;11.60;;;2.22;;
51943;SDS011;37969;53.132;6.370;2022-08-01T10:17:53;8.95;;;2.25;;
51943;SDS011;37969;53.132;6.370;2022-08-01T10:20:26;4.68;;;1.58;;
51943;SDS011;37969;53.132;6.370;2022-08-01T10:22:53;11.88;;;1.98;;
51943;SDS011;37969;53.132;6.370;2022-08-01T10:25:21;7.15;;;1.40;;
51943;SDS011;37969;53.132;6.370;2022-08-01T10:27:49;13.95;;;1.65;;
51943;SDS011;37969;53.132;6.370;2022-08-01T10:30:20;10.52;;;1.90;;
51943;SDS011;37969;53.132;6.370;2022-08-01T10:32:47;6.45;;;1.70;;
51943;SDS011;37969;53.132;6.370;2022-08-01T10:35:13;7.82;;;1.95;;
51943;SDS011;37969;53.132;6.370;2022-08-01T10:37:42;8.98;;;1.77;;
51943;SDS011;37969;53.132;6.370;2022-08-01T10:40:12;11.15;;;1.75;;
51943;SDS011;37969;53.132;6.370;2022-08-01T10:42:41;10.57;;;2.00;;
51943;SDS011;37969;53.132;6.370;2022-08-01T10:45:11;6.88;;;1.60;;
51943;SDS011;37969;53.132;6.370;2022-08-01T10:47:44;10.75;;;1.70;;
51943;SDS011;37969;53.132;6.370;2022-08-01T10:50:17;11.77;;;2.15;;
51943;SDS011;37969;53.132;6.370;2022-08-01T10:53:06;8.00;;;1.92;;
51943;SDS011;37969;53.132;6.370;2022-08-01T10:55:46;7.07;;;2.03;;
51943;SDS011;37969;53.132;6.370;2022-08-01T10:58:22;5.40;;;1.38;;
51943;SDS011;37969;53.132;6.370;2022-08-01T11:01:11;7.63;;;1.60;;
51943;SDS011;37969;53.132;6.370;2022-08-01T11:03:35;10.80;;;1.98;;
51943;SDS011;37969;53.132;6.370;2022-08-01T11:06:03;9.18;;;1.70;;
51943;SDS011;37969;53.132;6.370;2022-08-01T11:08:31;9.80;;;1.92;;
51943;SDS011;37969;53.132;6.370;2022-08-01T11:11:01;11.18;;;2.08;;
51943;SDS011;37969;53.132;6.370;2022-08-01T11:16:24;10.30;;;1.90;;
51943;SDS011;37969;53.132;6.370;2022-08-01T11:18:52;9.27;;;1.85;;
51943;SDS011;37969;53.132;6.370;2022-08-01T11:21:20;10.48;;;1.88;;
51943;SDS011;37969;53.132;6.370;2022-08-01T11:23:50;6.50;;;1.60;;
51943;SDS011;37969;53.132;6.370;2022-08-01T11:26:18;6.53;;;1.50;;
51943;SDS011;37969;53.132;6.370;2022-08-01T11:29:10;8.55;;;1.80;;
51943;SDS011;37969;53.132;6.370;2022-08-01T11:31:33;10.30;;;1.83;;
51943;SDS011;37969;53.132;6.370;2022-08-01T11:34:00;7.32;;;1.40;;
51943;SDS011;37969;53.132;6.370;2022-08-01T11:36:30;11.65;;;1.70;;
51943;SDS011;37969;53.132;6.370;2022-08-01T11:41:27;9.38;;;1.70;;
51943;SDS011;37969;53.132;6.370;2022-08-01T11:44:02;8.32;;;1.48;;
51943;SDS011;37969;53.132;6.370;2022-08-01T11:49:23;7.05;;;1.67;;
51943;SDS011;37969;53.132;6.370;2022-08-01T11:51:57;8.88;;;1.60;;
51943;SDS011;37969;53.132;6.370;2022-08-01T11:54:26;13.10;;;2.30;;
51943;SDS011;37969;53.132;6.370;2022-08-01T11:56:54;5.43;;;1.48;;
51943;SDS011;37969;53.132;6.370;2022-08-01T11:59:21;10.40;;;1.90;;
51943;SDS011;37969;53.132;6.370;2022-08-01T12:01:48;5.57;;;1.70;;
51943;SDS011;37969;53.132;6.370;2022-08-01T12:04:21;12.27;;;1.80;;
51943;SDS011;37969;53.132;6.370;2022-08-01T12:06:49;5.32;;;1.38;;
51943;SDS011;37969;53.132;6.370;2022-08-01T12:09:17;6.53;;;1.30;;
51943;SDS011;37969;53.132;6.370;2022-08-01T12:11:43;7.00;;;1.75;;
51943;SDS011;37969;53.132;6.370;2022-08-01T12:14:15;9.43;;;1.65;;
51943;SDS011;37969;53.132;6.370;2022-08-01T12:16:51;7.53;;;1.60;;
51943;SDS011;37969;53.132;6.370;2022-08-01T12:19:23;8.20;;;1.50;;
51943;SDS011;37969;53.132;6.370;2022-08-01T12:22:06;7.38;;;1.50;;
51943;SDS011;37969;53.132;6.370;2022-08-01T12:24:33;8.93;;;1.63;;
51943;SDS011;37969;53.132;6.370;2022-08-01T12:27:03;9.52;;;1.80;;
51943;SDS011;37969;53.132;6.370;2022-08-01T12:29:35;5.05;;;1.52;;
51943;SDS011;37969;53.132;6.370;2022-08-01T12:32:04;7.28;;;1.60;;
51943;SDS011;37969;53.132;6.370;2022-08-01T12:34:32;6.32;;;1.50;;
51943;SDS011;37969;53.132;6.370;2022-08-01T12:37:01;7.47;;;1.63;;
51943;SDS011;37969;53.132;6.370;2022-08-01T12:39:31;9.67;;;1.90;;
51943;SDS011;37969;53.132;6.370;2022-08-01T12:42:06;5.47;;;1.77;;
51943;SDS011;37969;53.132;6.370;2022-08-01T12:44:32;5.55;;;1.40;;
51943;SDS011;37969;53.132;6.370;2022-08-01T12:47:01;7.35;;;1.33;;
51943;SDS011;37969;53.132;6.370;2022-08-01T12:49:37;4.35;;;1.33;;
51943;SDS011;37969;53.132;6.370;2022-08-01T12:52:04;7.93;;;1.58;;
51943;SDS011;37969;53.132;6.370;2022-08-01T12:54:59;5.93;;;1.60;;
51943;SDS011;37969;53.132;6.370;2022-08-01T12:57:22;5.88;;;1.38;;
51943;SDS011;37969;53.132;6.370;2022-08-01T12:59:48;4.85;;;1.20;;
51943;SDS011;37969;53.132;6.370;2022-08-01T13:04:50;3.70;;;1.27;;
51943;SDS011;37969;53.132;6.370;2022-08-01T13:07:18;5.03;;;1.35;;
51943;SDS011;37969;53.132;6.370;2022-08-01T13:09:49;6.25;;;1.42;;
51943;SDS011;37969;53.132;6.370;2022-08-01T13:12:18;10.73;;;1.42;;
51943;SDS011;37969;53.132;6.370;2022-08-01T13:14:45;5.70;;;1.75;;
51943;SDS011;37969;53.132;6.370;2022-08-01T13:17:11;7.38;;;1.42;;
51943;SDS011;37969;53.132;6.370;2022-08-01T13:20:01;12.65;;;1.67;;
51943;SDS011;37969;53.132;6.370;2022-08-01T13:22:32;5.68;;;1.50;;
51943;SDS011;37969;53.132;6.370;2022-08-01T13:25:11;5.50;;;1.60;;
51943;SDS011;37969;53.132;6.370;2022-08-01T13:27:38;8.25;;;1.88;;
51943;SDS011;37969;53.132;6.370;2022-08-01T13:30:10;9.15;;;1.75;;
51943;SDS011;37969;53.132;6.370;2022-08-01T13:32:36;8.40;;;1.70;;
51943;SDS011;37969;53.132;6.370;2022-08-01T13:35:05;10.95;;;1.73;;
51943;SDS011;37969;53.132;6.370;2022-08-01T13:37:37;10.80;;;1.75;;
51943;SDS011;37969;53.132;6.370;2022-08-01T13:40:09;9.15;;;1.40;;
51943;SDS011;37969;53.132;6.370;2022-08-01T13:42:36;10.85;;;1.50;;
51943;SDS011;37969;53.132;6.370;2022-08-01T13:45:05;9.77;;;1.70;;
51943;SDS011;37969;53.132;6.370;2022-08-01T13:47:34;10.85;;;1.65;;
51943;SDS011;37969;53.132;6.370;2022-08-01T13:50:03;3.50;;;1.40;;
51943;SDS011;37969;53.132;6.370;2022-08-01T13:52:30;6.90;;;1.33;;
51943;SDS011;37969;53.132;6.370;2022-08-01T13:54:56;8.70;;;1.30;;
51943;SDS011;37969;53.132;6.370;2022-08-01T13:57:23;6.28;;;1.35;;
51943;SDS011;37969;53.132;6.370;2022-08-01T13:59:50;4.82;;;1.40;;
51943;SDS011;37969;53.132;6.370;2022-08-01T14:02:16;12.18;;;1.60;;
51943;SDS011;37969;53.132;6.370;2022-08-01T14:04:43;4.75;;;1.55;;
51943;SDS011;37969;53.132;6.370;2022-08-01T14:07:10;7.80;;;1.45;;
51943;SDS011;37969;53.132;6.370;2022-08-01T14:09:38;4.45;;;1.27;;
51943;SDS011;37969;53.132;6.370;2022-08-01T14:12:09;6.10;;;1.70;;
51943;SDS011;37969;53.132;6.370;2022-08-01T14:14:36;6.00;;;1.50;;
51943;SDS011;37969;53.132;6.370;2022-08-01T14:17:03;6.03;;;1.42;;
51943;SDS011;37969;53.132;6.370;2022-08-01T14:19:30;6.18;;;1.48;;
51943;SDS011;37969;53.132;6.370;2022-08-01T14:22:02;6.47;;;1.40;;
51943;SDS011;37969;53.132;6.370;2022-08-01T14:24:29;6.78;;;1.45;;
51943;SDS011;37969;53.132;6.370;2022-08-01T14:26:55;6.70;;;1.60;;
51943;SDS011;37969;53.132;6.370;2022-08-01T14:29:21;6.72;;;1.70;;
51943;SDS011;37969;53.132;6.370;2022-08-01T14:31:49;5.68;;;1.38;;
51943;SDS011;37969;53.132;6.370;2022-08-01T14:34:15;7.05;;;1.55;;
51943;SDS011;37969;53.132;6.370;2022-08-01T14:36:44;5.13;;;1.27;;
51943;SDS011;37969;53.132;6.370;2022-08-01T14:39:18;8.43;;;1.75;;
51943;SDS011;37969;53.132;6.370;2022-08-01T14:41:46;6.28;;;1.63;;
51943;SDS011;37969;53.132;6.370;2022-08-01T14:44:13;7.72;;;1.70;;
51943;SDS011;37969;53.132;6.370;2022-08-01T14:46:40;6.78;;;1.52;;
51943;SDS011;37969;53.132;6.370;2022-08-01T14:49:10;5.35;;;1.30;;
51943;SDS011;37969;53.132;6.370;2022-08-01T14:51:43;8.40;;;1.50;;
51943;SDS011;37969;53.132;6.370;2022-08-01T14:54:10;4.47;;;1.63;;
51943;SDS011;37969;53.132;6.370;2022-08-01T14:56:37;5.88;;;1.55;;
51943;SDS011;37969;53.132;6.370;2022-08-01T14:59:03;9.38;;;2.28;;
51943;SDS011;37969;53.132;6.370;2022-08-01T15:01:32;6.63;;;1.30;;
51943;SDS011;37969;53.132;6.370;2022-08-01T15:03:58;3.50;;;1.30;;
51943;SDS011;37969;53.132;6.370;2022-08-01T15:06:24;5.85;;;1.45;;
51943;SDS011;37969;53.132;6.370;2022-08-01T15:08:53;7.15;;;1.63;;
51943;SDS011;37969;53.132;6.370;2022-08-01T15:11:20;5.97;;;1.55;;